sensor_id;sensor_type;location;lat;lon;timestamp;P1;durP1;ratioP1;P2;durP2;ratioP2
16878;SDS011;8556;52.218;9.884;2023-04-06T00:00:14;16.13;;;11.90;;
16878;SDS011;8556;52.218;9.884;2023-04-06T00:02:41;16.57;;;11.70;;
16878;SDS011;8556;52.218;9.884;2023-04-06T00:05:08;21.87;;;12.43;;
16878;SDS011;8556;52.218;9.884;2023-04-06T00:07:35;17.73;;;12.33;;
16878;SDS011;8556;52.218;9.884;2023-04-06T00:10:02;19.07;;;12.30;;
16878;SDS011;8556;52.218;9.884;2023-04-06T00:12:30;17.53;;;12.60;;
16878;SDS011;8556;52.218;9.884;2023-04-06T00:14:57;17.97;;;12.77;;
16878;SDS011;8556;52.218;9.884;2023-04-06T00:17:25;24.30;;;13.87;;
16878;SDS011;8556;52.218;9.884;2023-04-06T00:19:52;17.83;;;12.23;;
16878;SDS011;8556;52.218;9.884;2023-04-06T00:22:19;16.97;;;12.60;;
16878;SDS011;8556;52.218;9.884;2023-04-06T00:24:46;19.70;;;12.93;;
16878;SDS011;8556;52.218;9.884;2023-04-06T00:27:12;20.10;;;13.83;;
16878;SDS011;8556;52.218;9.884;2023-04-06T00:29:39;16.37;;;11.90;;
16878;SDS011;8556;52.218;9.884;2023-04-06T00:32:06;18.47;;;13.03;;
16878;SDS011;8556;52.218;9.884;2023-04-06T00:34:35;18.73;;;12.87;;
16878;SDS011;8556;52.218;9.884;2023-04-06T00:37:02;18.43;;;13.13;;
16878;SDS011;8556;52.218;9.884;2023-04-06T00:39:28;20.57;;;13.07;;
16878;SDS011;8556;52.218;9.884;2023-04-06T00:41:55;18.03;;;12.67;;
16878;SDS011;8556;52.218;9.884;2023-04-06T00:44:22;17.83;;;12.13;;
16878;SDS011;8556;52.218;9.884;2023-04-06T00:46:50;20.30;;;13.60;;
16878;SDS011;8556;52.218;9.884;2023-04-06T00:49:17;19.60;;;13.63;;
16878;SDS011;8556;52.218;9.884;2023-04-06T00:51:45;19.87;;;13.10;;
16878;SDS011;8556;52.218;9.884;2023-04-06T00:54:12;18.83;;;12.33;;
16878;SDS011;8556;52.218;9.884;2023-04-06T00:56:39;18.67;;;12.83;;
16878;SDS011;8556;52.218;9.884;2023-04-06T00:59:08;19.73;;;13.67;;
16878;SDS011;8556;52.218;9.884;2023-04-06T01:01:36;19.70;;;13.07;;
16878;SDS011;8556;52.218;9.884;2023-04-06T01:04:03;19.77;;;13.17;;
16878;SDS011;8556;52.218;9.884;2023-04-06T01:06:30;21.50;;;14.27;;
16878;SDS011;8556;52.218;9.884;2023-04-06T01:08:58;20.10;;;13.60;;
16878;SDS011;8556;52.218;9.884;2023-04-06T01:11:25;19.27;;;14.07;;
16878;SDS011;8556;52.218;9.884;2023-04-06T01:13:52;18.60;;;13.20;;
16878;SDS011;8556;52.218;9.884;2023-04-06T01:16:19;19.00;;;12.87;;
16878;SDS011;8556;52.218;9.884;2023-04-06T01:18:46;20.07;;;13.27;;
16878;SDS011;8556;52.218;9.884;2023-04-06T01:21:13;17.20;;;11.83;;
16878;SDS011;8556;52.218;9.884;2023-04-06T01:23:43;19.20;;;12.97;;
16878;SDS011;8556;52.218;9.884;2023-04-06T01:26:11;18.77;;;12.27;;
16878;SDS011;8556;52.218;9.884;2023-04-06T01:28:38;17.43;;;12.17;;
16878;SDS011;8556;52.218;9.884;2023-04-06T01:31:05;17.60;;;11.50;;
16878;SDS011;8556;52.218;9.884;2023-04-06T01:33:33;15.77;;;10.10;;
16878;SDS011;8556;52.218;9.884;2023-04-06T01:36:00;17.37;;;11.60;;
16878;SDS011;8556;52.218;9.884;2023-04-06T01:38:27;16.10;;;11.33;;
16878;SDS011;8556;52.218;9.884;2023-04-06T01:40:55;17.87;;;11.83;;
16878;SDS011;8556;52.218;9.884;2023-04-06T01:43:22;16.50;;;11.60;;
16878;SDS011;8556;52.218;9.884;2023-04-06T01:45:49;17.63;;;11.70;;
16878;SDS011;8556;52.218;9.884;2023-04-06T01:48:16;18.13;;;11.37;;
16878;SDS011;8556;52.218;9.884;2023-04-06T01:50:43;17.33;;;12.20;;
16878;SDS011;8556;52.218;9.884;2023-04-06T01:53:10;20.67;;;12.90;;
16878;SDS011;8556;52.218;9.884;2023-04-06T01:55:37;19.10;;;13.23;;
16878;SDS011;8556;52.218;9.884;2023-04-06T01:58:05;19.27;;;12.93;;
16878;SDS011;8556;52.218;9.884;2023-04-06T02:00:32;21.40;;;14.33;;
16878;SDS011;8556;52.218;9.884;2023-04-06T02:02:59;21.87;;;14.30;;
16878;SDS011;8556;52.218;9.884;2023-04-06T02:05:26;19.37;;;13.37;;
16878;SDS011;8556;52.218;9.884;2023-04-06T02:07:54;21.10;;;14.33;;
16878;SDS011;8556;52.218;9.884;2023-04-06T02:10:21;22.23;;;14.27;;
16878;SDS011;8556;52.218;9.884;2023-04-06T02:12:48;19.80;;;13.30;;
16878;SDS011;8556;52.218;9.884;2023-04-06T02:15:17;20.30;;;14.00;;
16878;SDS011;8556;52.218;9.884;2023-04-06T02:17:44;18.77;;;13.40;;
16878;SDS011;8556;52.218;9.884;2023-04-06T02:20:11;17.33;;;12.07;;
16878;SDS011;8556;52.218;9.884;2023-04-06T02:22:38;20.23;;;13.33;;
16878;SDS011;8556;52.218;9.884;2023-04-06T02:25:05;18.93;;;12.93;;
16878;SDS011;8556;52.218;9.884;2023-04-06T02:27:33;20.67;;;13.33;;
16878;SDS011;8556;52.218;9.884;2023-04-06T02:30:00;19.77;;;13.87;;
16878;SDS011;8556;52.218;9.884;2023-04-06T02:32:28;18.03;;;13.23;;
16878;SDS011;8556;52.218;9.884;2023-04-06T02:34:55;19.93;;;13.97;;
16878;SDS011;8556;52.218;9.884;2023-04-06T02:37:22;18.90;;;13.20;;
16878;SDS011;8556;52.218;9.884;2023-04-06T02:39:50;19.93;;;13.10;;
16878;SDS011;8556;52.218;9.884;2023-04-06T02:42:17;19.50;;;13.53;;
16878;SDS011;8556;52.218;9.884;2023-04-06T02:44:43;18.00;;;13.10;;
16878;SDS011;8556;52.218;9.884;2023-04-06T02:47:10;17.80;;;13.23;;
16878;SDS011;8556;52.218;9.884;2023-04-06T02:49:39;19.23;;;12.70;;
16878;SDS011;8556;52.218;9.884;2023-04-06T02:52:06;18.57;;;12.70;;
16878;SDS011;8556;52.218;9.884;2023-04-06T02:54:32;19.77;;;13.03;;
16878;SDS011;8556;52.218;9.884;2023-04-06T02:56:59;18.20;;;12.60;;
16878;SDS011;8556;52.218;9.884;2023-04-06T02:59:26;18.37;;;12.37;;
16878;SDS011;8556;52.218;9.884;2023-04-06T03:01:53;18.77;;;12.27;;
16878;SDS011;8556;52.218;9.884;2023-04-06T03:04:20;19.07;;;12.60;;
16878;SDS011;8556;52.218;9.884;2023-04-06T03:06:51;19.37;;;12.33;;
16878;SDS011;8556;52.218;9.884;2023-04-06T03:09:20;20.70;;;12.90;;
16878;SDS011;8556;52.218;9.884;2023-04-06T03:11:47;19.77;;;12.53;;
16878;SDS011;8556;52.218;9.884;2023-04-06T03:14:13;19.43;;;12.53;;
16878;SDS011;8556;52.218;9.884;2023-04-06T03:16:42;20.90;;;13.50;;
16878;SDS011;8556;52.218;9.884;2023-04-06T03:19:09;18.73;;;12.83;;
16878;SDS011;8556;52.218;9.884;2023-04-06T03:21:36;18.47;;;12.87;;
16878;SDS011;8556;52.218;9.884;2023-04-06T03:24:05;18.40;;;12.73;;
16878;SDS011;8556;52.218;9.884;2023-04-06T03:26:32;17.27;;;12.53;;
16878;SDS011;8556;52.218;9.884;2023-04-06T03:28:59;18.67;;;11.60;;
16878;SDS011;8556;52.218;9.884;2023-04-06T03:31:26;18.90;;;11.93;;
16878;SDS011;8556;52.218;9.884;2023-04-06T03:33:53;16.83;;;10.77;;
16878;SDS011;8556;52.218;9.884;2023-04-06T03:36:20;16.03;;;10.97;;
16878;SDS011;8556;52.218;9.884;2023-04-06T03:38:46;24.20;;;20.30;;
16878;SDS011;8556;52.218;9.884;2023-04-06T03:41:15;19.07;;;12.63;;
16878;SDS011;8556;52.218;9.884;2023-04-06T03:43:42;17.23;;;10.07;;
16878;SDS011;8556;52.218;9.884;2023-04-06T03:46:08;16.30;;;10.80;;
16878;SDS011;8556;52.218;9.884;2023-04-06T03:48:35;15.20;;;9.93;;
16878;SDS011;8556;52.218;9.884;2023-04-06T03:51:02;16.80;;;10.00;;
16878;SDS011;8556;52.218;9.884;2023-04-06T03:53:30;18.50;;;10.57;;
16878;SDS011;8556;52.218;9.884;2023-04-06T03:55:56;17.40;;;10.97;;
16878;SDS011;8556;52.218;9.884;2023-04-06T03:58:25;15.23;;;9.73;;
16878;SDS011;8556;52.218;9.884;2023-04-06T04:00:52;13.73;;;9.20;;
16878;SDS011;8556;52.218;9.884;2023-04-06T04:03:19;14.63;;;9.57;;
16878;SDS011;8556;52.218;9.884;2023-04-06T04:05:46;14.73;;;9.20;;
16878;SDS011;8556;52.218;9.884;2023-04-06T04:08:13;16.50;;;10.03;;
16878;SDS011;8556;52.218;9.884;2023-04-06T04:10:40;14.97;;;8.90;;
16878;SDS011;8556;52.218;9.884;2023-04-06T04:13:07;14.27;;;8.90;;
16878;SDS011;8556;52.218;9.884;2023-04-06T04:15:36;14.57;;;8.97;;
16878;SDS011;8556;52.218;9.884;2023-04-06T04:18:03;15.60;;;8.63;;
16878;SDS011;8556;52.218;9.884;2023-04-06T04:20:30;18.70;;;8.70;;
16878;SDS011;8556;52.218;9.884;2023-04-06T04:22:57;15.97;;;8.23;;
16878;SDS011;8556;52.218;9.884;2023-04-06T04:25:23;15.20;;;8.30;;
16878;SDS011;8556;52.218;9.884;2023-04-06T04:27:50;17.03;;;7.83;;
16878;SDS011;8556;52.218;9.884;2023-04-06T04:30:17;14.77;;;8.23;;
16878;SDS011;8556;52.218;9.884;2023-04-06T04:32:46;16.87;;;7.67;;
16878;SDS011;8556;52.218;9.884;2023-04-06T04:35:12;13.87;;;7.90;;
16878;SDS011;8556;52.218;9.884;2023-04-06T04:37:40;14.67;;;8.50;;
16878;SDS011;8556;52.218;9.884;2023-04-06T04:40:07;12.33;;;7.57;;
16878;SDS011;8556;52.218;9.884;2023-04-06T04:42:35;15.20;;;8.30;;
16878;SDS011;8556;52.218;9.884;2023-04-06T04:45:02;14.30;;;8.20;;
16878;SDS011;8556;52.218;9.884;2023-04-06T04:47:29;14.80;;;8.30;;
16878;SDS011;8556;52.218;9.884;2023-04-06T04:49:58;13.80;;;7.87;;
16878;SDS011;8556;52.218;9.884;2023-04-06T04:52:25;16.97;;;7.90;;
16878;SDS011;8556;52.218;9.884;2023-04-06T04:54:51;11.70;;;7.50;;
16878;SDS011;8556;52.218;9.884;2023-04-06T04:57:18;12.67;;;7.53;;
16878;SDS011;8556;52.218;9.884;2023-04-06T04:59:45;13.03;;;8.30;;
16878;SDS011;8556;52.218;9.884;2023-04-06T05:02:12;14.23;;;7.87;;
16878;SDS011;8556;52.218;9.884;2023-04-06T05:04:40;16.37;;;8.87;;
16878;SDS011;8556;52.218;9.884;2023-04-06T05:07:08;12.67;;;7.47;;
16878;SDS011;8556;52.218;9.884;2023-04-06T05:09:35;12.93;;;7.10;;
16878;SDS011;8556;52.218;9.884;2023-04-06T05:12:02;12.27;;;7.23;;
16878;SDS011;8556;52.218;9.884;2023-04-06T05:14:29;13.47;;;6.83;;
16878;SDS011;8556;52.218;9.884;2023-04-06T05:16:56;10.03;;;6.90;;
16878;SDS011;8556;52.218;9.884;2023-04-06T05:19:23;10.53;;;6.63;;
16878;SDS011;8556;52.218;9.884;2023-04-06T05:21:50;11.33;;;7.10;;
16878;SDS011;8556;52.218;9.884;2023-04-06T05:24:18;9.03;;;6.53;;
16878;SDS011;8556;52.218;9.884;2023-04-06T05:26:45;10.40;;;5.87;;
16878;SDS011;8556;52.218;9.884;2023-04-06T05:29:12;11.07;;;6.33;;
16878;SDS011;8556;52.218;9.884;2023-04-06T05:31:39;11.00;;;6.90;;
16878;SDS011;8556;52.218;9.884;2023-04-06T05:34:06;14.63;;;6.63;;
16878;SDS011;8556;52.218;9.884;2023-04-06T05:36:34;12.03;;;6.33;;
16878;SDS011;8556;52.218;9.884;2023-04-06T05:39:01;14.20;;;7.00;;
16878;SDS011;8556;52.218;9.884;2023-04-06T05:41:29;14.27;;;7.23;;
16878;SDS011;8556;52.218;9.884;2023-04-06T05:43:56;13.60;;;7.00;;
16878;SDS011;8556;52.218;9.884;2023-04-06T05:46:23;12.13;;;6.77;;
16878;SDS011;8556;52.218;9.884;2023-04-06T05:48:50;13.23;;;6.87;;
16878;SDS011;8556;52.218;9.884;2023-04-06T05:51:17;16.07;;;7.10;;
16878;SDS011;8556;52.218;9.884;2023-04-06T05:53:44;12.90;;;6.80;;
16878;SDS011;8556;52.218;9.884;2023-04-06T05:56:11;11.50;;;6.60;;
16878;SDS011;8556;52.218;9.884;2023-04-06T05:58:39;10.23;;;6.20;;
16878;SDS011;8556;52.218;9.884;2023-04-06T06:01:06;13.27;;;7.40;;
16878;SDS011;8556;52.218;9.884;2023-04-06T06:03:34;12.23;;;7.00;;
16878;SDS011;8556;52.218;9.884;2023-04-06T06:06:01;15.03;;;7.67;;
16878;SDS011;8556;52.218;9.884;2023-04-06T06:08:28;13.33;;;7.83;;
16878;SDS011;8556;52.218;9.884;2023-04-06T06:10:55;15.23;;;8.20;;
16878;SDS011;8556;52.218;9.884;2023-04-06T06:13:22;12.57;;;7.73;;
16878;SDS011;8556;52.218;9.884;2023-04-06T06:15:51;15.73;;;7.97;;
16878;SDS011;8556;52.218;9.884;2023-04-06T06:18:17;28.27;;;8.23;;
16878;SDS011;8556;52.218;9.884;2023-04-06T06:20:44;13.23;;;7.27;;
16878;SDS011;8556;52.218;9.884;2023-04-06T06:23:11;15.13;;;6.97;;
16878;SDS011;8556;52.218;9.884;2023-04-06T06:25:38;12.93;;;7.67;;
16878;SDS011;8556;52.218;9.884;2023-04-06T06:28:05;11.67;;;7.07;;
16878;SDS011;8556;52.218;9.884;2023-04-06T06:30:32;13.77;;;7.70;;
16878;SDS011;8556;52.218;9.884;2023-04-06T06:33:00;14.77;;;8.10;;
16878;SDS011;8556;52.218;9.884;2023-04-06T06:35:28;14.33;;;7.60;;
16878;SDS011;8556;52.218;9.884;2023-04-06T06:37:55;17.47;;;7.43;;
16878;SDS011;8556;52.218;9.884;2023-04-06T06:40:22;19.20;;;8.60;;
16878;SDS011;8556;52.218;9.884;2023-04-06T06:42:51;15.27;;;8.03;;
16878;SDS011;8556;52.218;9.884;2023-04-06T06:45:18;16.57;;;7.63;;
16878;SDS011;8556;52.218;9.884;2023-04-06T06:47:45;14.77;;;7.57;;
16878;SDS011;8556;52.218;9.884;2023-04-06T06:50:13;13.57;;;7.77;;
16878;SDS011;8556;52.218;9.884;2023-04-06T06:52:40;12.23;;;7.60;;
16878;SDS011;8556;52.218;9.884;2023-04-06T06:55:08;17.93;;;8.37;;
16878;SDS011;8556;52.218;9.884;2023-04-06T06:57:36;14.83;;;8.27;;
16878;SDS011;8556;52.218;9.884;2023-04-06T07:00:03;14.33;;;7.80;;
16878;SDS011;8556;52.218;9.884;2023-04-06T07:02:33;13.20;;;7.87;;
16878;SDS011;8556;52.218;9.884;2023-04-06T07:05:01;12.03;;;7.57;;
16878;SDS011;8556;52.218;9.884;2023-04-06T07:07:31;16.67;;;8.63;;
16878;SDS011;8556;52.218;9.884;2023-04-06T07:09:58;13.10;;;7.93;;
16878;SDS011;8556;52.218;9.884;2023-04-06T07:12:25;12.37;;;7.43;;
16878;SDS011;8556;52.218;9.884;2023-04-06T07:14:53;12.80;;;7.57;;
16878;SDS011;8556;52.218;9.884;2023-04-06T07:17:20;13.33;;;8.30;;
16878;SDS011;8556;52.218;9.884;2023-04-06T07:19:47;13.57;;;7.60;;
16878;SDS011;8556;52.218;9.884;2023-04-06T07:22:13;12.67;;;7.57;;
16878;SDS011;8556;52.218;9.884;2023-04-06T07:24:42;10.50;;;7.30;;
16878;SDS011;8556;52.218;9.884;2023-04-06T07:27:09;10.90;;;7.10;;
16878;SDS011;8556;52.218;9.884;2023-04-06T07:29:36;10.93;;;6.60;;
16878;SDS011;8556;52.218;9.884;2023-04-06T07:32:03;8.87;;;6.47;;
16878;SDS011;8556;52.218;9.884;2023-04-06T07:34:30;10.53;;;6.57;;
16878;SDS011;8556;52.218;9.884;2023-04-06T07:36:57;11.10;;;6.23;;
16878;SDS011;8556;52.218;9.884;2023-04-06T07:39:24;10.10;;;6.20;;
16878;SDS011;8556;52.218;9.884;2023-04-06T07:41:53;10.30;;;6.60;;
16878;SDS011;8556;52.218;9.884;2023-04-06T07:44:20;8.83;;;6.37;;
16878;SDS011;8556;52.218;9.884;2023-04-06T07:46:47;9.70;;;5.90;;
16878;SDS011;8556;52.218;9.884;2023-04-06T07:49:14;10.17;;;6.47;;
16878;SDS011;8556;52.218;9.884;2023-04-06T07:51:41;9.47;;;6.07;;
16878;SDS011;8556;52.218;9.884;2023-04-06T07:54:08;9.10;;;6.20;;
16878;SDS011;8556;52.218;9.884;2023-04-06T07:56:35;10.40;;;6.43;;
16878;SDS011;8556;52.218;9.884;2023-04-06T07:59:03;7.97;;;6.37;;
16878;SDS011;8556;52.218;9.884;2023-04-06T08:01:30;9.73;;;6.77;;
16878;SDS011;8556;52.218;9.884;2023-04-06T08:03:57;8.60;;;6.37;;
16878;SDS011;8556;52.218;9.884;2023-04-06T08:06:26;8.67;;;6.20;;
16878;SDS011;8556;52.218;9.884;2023-04-06T08:08:53;8.67;;;6.23;;
16878;SDS011;8556;52.218;9.884;2023-04-06T08:11:20;9.07;;;5.90;;
16878;SDS011;8556;52.218;9.884;2023-04-06T08:13:47;10.10;;;7.10;;
16878;SDS011;8556;52.218;9.884;2023-04-06T08:16:15;10.57;;;6.20;;
16878;SDS011;8556;52.218;9.884;2023-04-06T08:18:42;8.87;;;6.43;;
16878;SDS011;8556;52.218;9.884;2023-04-06T08:21:09;11.07;;;7.13;;
16878;SDS011;8556;52.218;9.884;2023-04-06T08:23:36;8.07;;;5.90;;
16878;SDS011;8556;52.218;9.884;2023-04-06T08:26:03;9.17;;;6.43;;
16878;SDS011;8556;52.218;9.884;2023-04-06T08:28:30;10.20;;;6.67;;
16878;SDS011;8556;52.218;9.884;2023-04-06T08:30:57;11.03;;;6.30;;
16878;SDS011;8556;52.218;9.884;2023-04-06T08:33:25;8.67;;;6.17;;
16878;SDS011;8556;52.218;9.884;2023-04-06T08:35:52;9.23;;;6.10;;
16878;SDS011;8556;52.218;9.884;2023-04-06T08:38:19;10.47;;;7.00;;
16878;SDS011;8556;52.218;9.884;2023-04-06T08:40:46;9.63;;;6.23;;
16878;SDS011;8556;52.218;9.884;2023-04-06T08:43:14;9.13;;;6.10;;
16878;SDS011;8556;52.218;9.884;2023-04-06T08:45:46;9.00;;;6.00;;
16878;SDS011;8556;52.218;9.884;2023-04-06T08:48:13;10.67;;;6.27;;
16878;SDS011;8556;52.218;9.884;2023-04-06T08:50:43;10.50;;;6.10;;
16878;SDS011;8556;52.218;9.884;2023-04-06T08:53:10;9.03;;;6.13;;
16878;SDS011;8556;52.218;9.884;2023-04-06T08:55:38;9.47;;;6.27;;
16878;SDS011;8556;52.218;9.884;2023-04-06T08:58:06;9.13;;;6.60;;
16878;SDS011;8556;52.218;9.884;2023-04-06T09:00:35;7.83;;;6.20;;
16878;SDS011;8556;52.218;9.884;2023-04-06T09:03:04;8.97;;;6.43;;
16878;SDS011;8556;52.218;9.884;2023-04-06T09:05:32;11.53;;;6.40;;
16878;SDS011;8556;52.218;9.884;2023-04-06T09:08:00;9.40;;;6.13;;
16878;SDS011;8556;52.218;9.884;2023-04-06T09:10:27;8.53;;;5.70;;
16878;SDS011;8556;52.218;9.884;2023-04-06T09:13:02;10.53;;;5.97;;
16878;SDS011;8556;52.218;9.884;2023-04-06T09:15:30;8.47;;;5.50;;
16878;SDS011;8556;52.218;9.884;2023-04-06T09:17:57;7.43;;;5.27;;
16878;SDS011;8556;52.218;9.884;2023-04-06T09:20:25;10.03;;;5.63;;
16878;SDS011;8556;52.218;9.884;2023-04-06T09:22:53;10.47;;;5.97;;
16878;SDS011;8556;52.218;9.884;2023-04-06T09:25:22;9.77;;;6.67;;
16878;SDS011;8556;52.218;9.884;2023-04-06T09:27:58;10.50;;;6.37;;
16878;SDS011;8556;52.218;9.884;2023-04-06T09:30:25;9.63;;;5.83;;
16878;SDS011;8556;52.218;9.884;2023-04-06T09:32:52;8.10;;;5.93;;
16878;SDS011;8556;52.218;9.884;2023-04-06T09:35:21;9.20;;;5.80;;
16878;SDS011;8556;52.218;9.884;2023-04-06T09:37:49;9.63;;;6.33;;
16878;SDS011;8556;52.218;9.884;2023-04-06T09:40:17;8.13;;;6.23;;
16878;SDS011;8556;52.218;9.884;2023-04-06T09:42:48;7.87;;;6.13;;
16878;SDS011;8556;52.218;9.884;2023-04-06T09:45:16;7.40;;;5.77;;
16878;SDS011;8556;52.218;9.884;2023-04-06T09:47:44;8.17;;;5.10;;
16878;SDS011;8556;52.218;9.884;2023-04-06T09:50:12;9.10;;;5.73;;
16878;SDS011;8556;52.218;9.884;2023-04-06T09:52:42;9.67;;;6.13;;
16878;SDS011;8556;52.218;9.884;2023-04-06T09:55:16;9.50;;;5.57;;
16878;SDS011;8556;52.218;9.884;2023-04-06T09:57:49;9.50;;;5.73;;
16878;SDS011;8556;52.218;9.884;2023-04-06T10:00:20;8.50;;;5.93;;
16878;SDS011;8556;52.218;9.884;2023-04-06T10:02:50;10.07;;;6.00;;
16878;SDS011;8556;52.218;9.884;2023-04-06T10:05:20;9.50;;;5.70;;
16878;SDS011;8556;52.218;9.884;2023-04-06T10:07:52;9.80;;;5.80;;
16878;SDS011;8556;52.218;9.884;2023-04-06T10:10:22;7.97;;;5.43;;
16878;SDS011;8556;52.218;9.884;2023-04-06T10:12:50;8.27;;;6.00;;
16878;SDS011;8556;52.218;9.884;2023-04-06T10:15:17;9.35;;;5.60;;
16878;SDS011;8556;52.218;9.884;2023-04-06T10:17:44;7.68;;;5.43;;
16878;SDS011;8556;52.218;9.884;2023-04-06T10:20:12;8.77;;;5.90;;
16878;SDS011;8556;52.218;9.884;2023-04-06T10:22:49;9.82;;;6.20;;
16878;SDS011;8556;52.218;9.884;2023-04-06T10:25:31;8.45;;;5.68;;
16878;SDS011;8556;52.218;9.884;2023-04-06T10:28:00;9.90;;;5.72;;
16878;SDS011;8556;52.218;9.884;2023-04-06T10:30:27;7.65;;;6.00;;
16878;SDS011;8556;52.218;9.884;2023-04-06T10:32:55;8.10;;;5.90;;
16878;SDS011;8556;52.218;9.884;2023-04-06T10:35:22;11.32;;;6.97;;
16878;SDS011;8556;52.218;9.884;2023-04-06T10:37:51;12.32;;;6.70;;
16878;SDS011;8556;52.218;9.884;2023-04-06T10:40:19;10.60;;;6.85;;
16878;SDS011;8556;52.218;9.884;2023-04-06T10:42:51;9.75;;;6.60;;
16878;SDS011;8556;52.218;9.884;2023-04-06T10:45:20;11.55;;;7.25;;
16878;SDS011;8556;52.218;9.884;2023-04-06T10:47:48;8.10;;;5.82;;
16878;SDS011;8556;52.218;9.884;2023-04-06T10:50:15;10.00;;;6.45;;
16878;SDS011;8556;52.218;9.884;2023-04-06T10:52:43;10.60;;;6.77;;
16878;SDS011;8556;52.218;9.884;2023-04-06T10:55:11;8.52;;;5.80;;
16878;SDS011;8556;52.218;9.884;2023-04-06T10:57:39;9.32;;;6.30;;
16878;SDS011;8556;52.218;9.884;2023-04-06T11:00:07;9.65;;;6.55;;
16878;SDS011;8556;52.218;9.884;2023-04-06T11:02:36;10.73;;;7.22;;
16878;SDS011;8556;52.218;9.884;2023-04-06T11:05:04;9.13;;;6.70;;
16878;SDS011;8556;52.218;9.884;2023-04-06T11:07:31;10.05;;;7.00;;
16878;SDS011;8556;52.218;9.884;2023-04-06T11:09:58;10.98;;;7.18;;
16878;SDS011;8556;52.218;9.884;2023-04-06T11:12:27;11.02;;;7.22;;
16878;SDS011;8556;52.218;9.884;2023-04-06T11:14:56;9.68;;;6.57;;
16878;SDS011;8556;52.218;9.884;2023-04-06T11:17:29;11.10;;;7.22;;
16878;SDS011;8556;52.218;9.884;2023-04-06T11:19:58;9.95;;;6.95;;
16878;SDS011;8556;52.218;9.884;2023-04-06T11:22:25;11.35;;;7.10;;
16878;SDS011;8556;52.218;9.884;2023-04-06T11:24:52;11.38;;;7.38;;
16878;SDS011;8556;52.218;9.884;2023-04-06T11:27:19;11.15;;;7.47;;
16878;SDS011;8556;52.218;9.884;2023-04-06T11:29:47;11.75;;;7.63;;
16878;SDS011;8556;52.218;9.884;2023-04-06T11:32:19;11.82;;;7.53;;
16878;SDS011;8556;52.218;9.884;2023-04-06T11:34:48;13.30;;;8.13;;
16878;SDS011;8556;52.218;9.884;2023-04-06T11:37:16;12.40;;;8.43;;
16878;SDS011;8556;52.218;9.884;2023-04-06T11:39:47;12.00;;;8.75;;
16878;SDS011;8556;52.218;9.884;2023-04-06T11:42:20;11.77;;;7.70;;
16878;SDS011;8556;52.218;9.884;2023-04-06T11:44:49;10.65;;;8.20;;
16878;SDS011;8556;52.218;9.884;2023-04-06T11:47:18;11.55;;;7.90;;
16878;SDS011;8556;52.218;9.884;2023-04-06T11:49:47;11.18;;;7.22;;
16878;SDS011;8556;52.218;9.884;2023-04-06T11:52:18;12.07;;;8.05;;
16878;SDS011;8556;52.218;9.884;2023-04-06T11:54:47;11.38;;;8.10;;
16878;SDS011;8556;52.218;9.884;2023-04-06T11:57:15;9.63;;;7.10;;
16878;SDS011;8556;52.218;9.884;2023-04-06T11:59:43;9.77;;;6.72;;
16878;SDS011;8556;52.218;9.884;2023-04-06T12:02:10;11.10;;;7.15;;
16878;SDS011;8556;52.218;9.884;2023-04-06T12:04:37;10.10;;;7.43;;
16878;SDS011;8556;52.218;9.884;2023-04-06T12:07:04;12.85;;;8.15;;
16878;SDS011;8556;52.218;9.884;2023-04-06T12:09:33;10.77;;;7.50;;
16878;SDS011;8556;52.218;9.884;2023-04-06T12:12:01;12.27;;;8.57;;
16878;SDS011;8556;52.218;9.884;2023-04-06T12:14:29;12.70;;;7.90;;
16878;SDS011;8556;52.218;9.884;2023-04-06T12:16:56;11.07;;;7.90;;
16878;SDS011;8556;52.218;9.884;2023-04-06T12:19:23;10.82;;;7.45;;
16878;SDS011;8556;52.218;9.884;2023-04-06T12:21:51;10.82;;;8.00;;
16878;SDS011;8556;52.218;9.884;2023-04-06T12:24:18;13.48;;;8.07;;
16878;SDS011;8556;52.218;9.884;2023-04-06T12:26:47;13.15;;;8.70;;
16878;SDS011;8556;52.218;9.884;2023-04-06T12:29:14;10.70;;;7.68;;
16878;SDS011;8556;52.218;9.884;2023-04-06T12:31:41;10.82;;;8.27;;
16878;SDS011;8556;52.218;9.884;2023-04-06T12:34:09;11.65;;;7.55;;
16878;SDS011;8556;52.218;9.884;2023-04-06T12:36:37;10.55;;;7.43;;
16878;SDS011;8556;52.218;9.884;2023-04-06T12:39:04;13.93;;;8.00;;
16878;SDS011;8556;52.218;9.884;2023-04-06T12:41:31;11.93;;;7.68;;
16878;SDS011;8556;52.218;9.884;2023-04-06T12:44:00;10.65;;;7.93;;
16878;SDS011;8556;52.218;9.884;2023-04-06T12:46:28;11.30;;;7.68;;
16878;SDS011;8556;52.218;9.884;2023-04-06T12:48:55;11.43;;;7.82;;
16878;SDS011;8556;52.218;9.884;2023-04-06T12:51:24;13.40;;;8.77;;
16878;SDS011;8556;52.218;9.884;2023-04-06T12:53:51;10.65;;;7.68;;
16878;SDS011;8556;52.218;9.884;2023-04-06T12:56:20;12.05;;;8.40;;
16878;SDS011;8556;52.218;9.884;2023-04-06T12:58:47;12.07;;;8.00;;
16878;SDS011;8556;52.218;9.884;2023-04-06T13:01:17;11.13;;;8.38;;
16878;SDS011;8556;52.218;9.884;2023-04-06T13:03:44;13.77;;;8.40;;
16878;SDS011;8556;52.218;9.884;2023-04-06T13:06:11;11.25;;;7.72;;
16878;SDS011;8556;52.218;9.884;2023-04-06T13:08:40;9.13;;;7.03;;
16878;SDS011;8556;52.218;9.884;2023-04-06T13:11:07;11.13;;;8.02;;
16878;SDS011;8556;52.218;9.884;2023-04-06T13:13:34;11.75;;;7.70;;
16878;SDS011;8556;52.218;9.884;2023-04-06T13:16:02;11.68;;;7.88;;
16878;SDS011;8556;52.218;9.884;2023-04-06T13:18:32;10.50;;;7.50;;
16878;SDS011;8556;52.218;9.884;2023-04-06T13:20:59;9.50;;;6.90;;
16878;SDS011;8556;52.218;9.884;2023-04-06T13:23:26;11.13;;;7.80;;
16878;SDS011;8556;52.218;9.884;2023-04-06T13:25:57;10.73;;;6.93;;
16878;SDS011;8556;52.218;9.884;2023-04-06T13:28:25;10.52;;;7.43;;
16878;SDS011;8556;52.218;9.884;2023-04-06T13:30:53;12.23;;;8.05;;
16878;SDS011;8556;52.218;9.884;2023-04-06T13:33:20;12.27;;;7.43;;
16878;SDS011;8556;52.218;9.884;2023-04-06T13:35:48;9.52;;;6.93;;
16878;SDS011;8556;52.218;9.884;2023-04-06T13:38:15;10.90;;;7.40;;
16878;SDS011;8556;52.218;9.884;2023-04-06T13:40:42;11.10;;;7.35;;
16878;SDS011;8556;52.218;9.884;2023-04-06T13:43:09;8.68;;;6.70;;
16878;SDS011;8556;52.218;9.884;2023-04-06T13:45:37;10.95;;;6.45;;
16878;SDS011;8556;52.218;9.884;2023-04-06T13:48:04;9.45;;;7.15;;
16878;SDS011;8556;52.218;9.884;2023-04-06T13:50:31;9.93;;;6.55;;
16878;SDS011;8556;52.218;9.884;2023-04-06T13:53:00;10.70;;;6.68;;
16878;SDS011;8556;52.218;9.884;2023-04-06T13:55:27;9.77;;;6.45;;
16878;SDS011;8556;52.218;9.884;2023-04-06T13:57:54;10.30;;;6.90;;
16878;SDS011;8556;52.218;9.884;2023-04-06T14:00:21;9.02;;;6.30;;
16878;SDS011;8556;52.218;9.884;2023-04-06T14:02:49;9.13;;;6.55;;
16878;SDS011;8556;52.218;9.884;2023-04-06T14:05:15;10.07;;;6.60;;
16878;SDS011;8556;52.218;9.884;2023-04-06T14:07:43;10.48;;;7.35;;
16878;SDS011;8556;52.218;9.884;2023-04-06T14:10:11;12.45;;;7.40;;
16878;SDS011;8556;52.218;9.884;2023-04-06T14:12:40;10.25;;;6.85;;
16878;SDS011;8556;52.218;9.884;2023-04-06T14:15:08;10.27;;;6.88;;
16878;SDS011;8556;52.218;9.884;2023-04-06T14:17:35;9.57;;;6.63;;
16878;SDS011;8556;52.218;9.884;2023-04-06T14:20:02;10.23;;;6.75;;
16878;SDS011;8556;52.218;9.884;2023-04-06T14:22:30;10.93;;;6.95;;
16878;SDS011;8556;52.218;9.884;2023-04-06T14:24:56;8.95;;;6.60;;
16878;SDS011;8556;52.218;9.884;2023-04-06T14:27:25;12.32;;;7.10;;
16878;SDS011;8556;52.218;9.884;2023-04-06T14:29:51;9.88;;;6.82;;
16878;SDS011;8556;52.218;9.884;2023-04-06T14:32:19;10.98;;;7.07;;
16878;SDS011;8556;52.218;9.884;2023-04-06T14:34:47;10.05;;;7.35;;
16878;SDS011;8556;52.218;9.884;2023-04-06T14:37:14;11.38;;;7.13;;
16878;SDS011;8556;52.218;9.884;2023-04-06T14:39:42;11.65;;;7.60;;
16878;SDS011;8556;52.218;9.884;2023-04-06T14:42:09;11.43;;;7.53;;
16878;SDS011;8556;52.218;9.884;2023-04-06T14:44:37;10.23;;;7.10;;
16878;SDS011;8556;52.218;9.884;2023-04-06T14:47:07;11.65;;;6.97;;
16878;SDS011;8556;52.218;9.884;2023-04-06T14:49:34;10.50;;;6.57;;